Hovedside
METAR-TAF:

METAR-TAF

Lufthavner :

Upington, Sør-Afrika

breddegrad: 28-24S, lengdegrad: 021-16E, høyde over havet: 839 m

Gjeldene værobservasjon

Denne rapporten ble laget for 41 minutter siden, klokken 01:00 UTC
Vind 3 kt fra Nordøst
Temperatur 9°C
Luftfuktighet 46%
Trykk 1025 hPa
Sikt 10 km eller mer
ingen skyer under 1500 m og ingen bygeskyer

METAR: FAUP 140100Z 05003KT CAVOK 09/M02 Q1025 NOSIG

Tid: 03:41 (01:41 UTC)

Varsel

Denne rapporten ble laget for 3 timer og 41 minutter siden, klokken 22:00 UTC
Varsel gyldig fra 14. klokken 00 UTC til 14. klokken 24 UTC
Vind 3 kt fra skiftende retning
Sikt 10 km eller mer
ingen skyer under 1500 m og ingen bygeskyer

TAF: FAUP 132200Z 1400/1424 VRB03KT CAVOK TX25/1413Z TN07/1405Z

Værobservasjoner og værvarsel for over 4000 flyplasser (METAR- og TAF-rapporter).

Tilgjengelige stasjoner er representert av de røde og gule prikkene på kartet.

Hold musepekeren over prikken for å se navnet på stasjonen.

Klikk så for å se værobservasjoner og -varsler.

For å forandre kartet kan du klikke på den grønne knappen med svart kryss for å zoome inn, på den grønne knappen med strek for å zoome ut, eller på de grønne pilene for å se tilstøtende kart.


METAR-TAF: